sensor_id;sensor_type;location;lat;lon;timestamp;pressure;altitude;pressure_sealevel;temperature;humidity
39891;BME280;25564;53.312;9.790;2024-03-29T00:01:45;98955.22;;;5.31;78.51
39891;BME280;25564;53.312;9.790;2024-03-29T00:04:15;98956.03;;;5.32;78.89
39891;BME280;25564;53.312;9.790;2024-03-29T00:06:46;98953.84;;;5.27;78.83
39891;BME280;25564;53.312;9.790;2024-03-29T00:09:16;98953.31;;;5.24;79.12
39891;BME280;25564;53.312;9.790;2024-03-29T00:11:47;98952.63;;;5.22;78.95
39891;BME280;25564;53.312;9.790;2024-03-29T00:14:17;98945.84;;;5.21;78.44
39891;BME280;25564;53.312;9.790;2024-03-29T00:16:48;98945.19;;;5.19;78.76
39891;BME280;25564;53.312;9.790;2024-03-29T00:19:18;98945.31;;;5.17;78.62
39891;BME280;25564;53.312;9.790;2024-03-29T00:21:49;98946.66;;;5.12;78.21
39891;BME280;25564;53.312;9.790;2024-03-29T00:24:19;98947.59;;;5.11;79.12
39891;BME280;25564;53.312;9.790;2024-03-29T00:26:50;98947.59;;;5.11;78.56
39891;BME280;25564;53.312;9.790;2024-03-29T00:29:20;98952.34;;;5.06;78.55
39891;BME280;25564;53.312;9.790;2024-03-29T00:31:50;98956.22;;;5.00;78.44
39891;BME280;25564;53.312;9.790;2024-03-29T00:34:21;98953.13;;;4.97;78.72
39891;BME280;25564;53.312;9.790;2024-03-29T00:36:52;98945.78;;;4.92;79.05
39891;BME280;25564;53.312;9.790;2024-03-29T00:39:23;98957.81;;;4.92;78.55
39891;BME280;25564;53.312;9.790;2024-03-29T00:41:53;98951.22;;;4.89;78.60
39891;BME280;25564;53.312;9.790;2024-03-29T00:44:23;98946.56;;;4.83;78.74
39891;BME280;25564;53.312;9.790;2024-03-29T00:46:54;98949.53;;;4.79;78.50
39891;BME280;25564;53.312;9.790;2024-03-29T00:49:25;98952.50;;;4.74;78.89
39891;BME280;25564;53.312;9.790;2024-03-29T00:51:55;98946.09;;;4.68;78.99
39891;BME280;25564;53.312;9.790;2024-03-29T00:54:26;98943.53;;;4.68;78.47
39891;BME280;25564;53.312;9.790;2024-03-29T00:56:56;98952.34;;;4.66;78.54
39891;BME280;25564;53.312;9.790;2024-03-29T00:59:27;98948.50;;;4.60;78.67
39891;BME280;25564;53.312;9.790;2024-03-29T01:01:57;98948.50;;;4.60;78.24
39891;BME280;25564;53.312;9.790;2024-03-29T01:04:28;98953.09;;;4.57;78.50
39891;BME280;25564;53.312;9.790;2024-03-29T01:06:58;98947.41;;;4.53;79.33
39891;BME280;25564;53.312;9.790;2024-03-29T01:09:28;98950.22;;;4.50;78.58
39891;BME280;25564;53.312;9.790;2024-03-29T01:11:59;98948.03;;;4.46;78.52
39891;BME280;25564;53.312;9.790;2024-03-29T01:14:30;98950.03;;;4.42;78.91
39891;BME280;25564;53.312;9.790;2024-03-29T01:17:00;98951.09;;;4.40;78.63
39891;BME280;25564;53.312;9.790;2024-03-29T01:19:31;98951.47;;;4.35;79.08
39891;BME280;25564;53.312;9.790;2024-03-29T01:22:01;98955.13;;;4.33;78.34
39891;BME280;25564;53.312;9.790;2024-03-29T01:24:32;98947.00;;;4.28;78.73
39891;BME280;25564;53.312;9.790;2024-03-29T01:27:03;98947.69;;;4.30;78.36
39891;BME280;25564;53.312;9.790;2024-03-29T01:29:36;98948.06;;;4.25;79.04
39891;BME280;25564;53.312;9.790;2024-03-29T01:32:07;98946.53;;;4.23;78.76
39891;BME280;25564;53.312;9.790;2024-03-29T01:34:38;98953.69;;;4.19;78.46
39891;BME280;25564;53.312;9.790;2024-03-29T01:37:08;98948.00;;;4.16;78.44
39891;BME280;25564;53.312;9.790;2024-03-29T01:39:39;98954.19;;;4.13;78.93
39891;BME280;25564;53.312;9.790;2024-03-29T01:42:09;98958.63;;;4.11;79.04
39891;BME280;25564;53.312;9.790;2024-03-29T01:44:40;98954.69;;;4.07;78.47
39891;BME280;25564;53.312;9.790;2024-03-29T01:47:10;98948.97;;;4.04;79.05
39891;BME280;25564;53.312;9.790;2024-03-29T01:49:41;98948.97;;;4.04;79.13
39891;BME280;25564;53.312;9.790;2024-03-29T01:52:15;98951.53;;;4.04;79.11
39891;BME280;25564;53.312;9.790;2024-03-29T01:54:47;98951.81;;;4.01;79.31
39891;BME280;25564;53.312;9.790;2024-03-29T01:57:19;98956.25;;;3.99;79.21
39891;BME280;25564;53.312;9.790;2024-03-29T01:59:49;98960.56;;;3.98;79.03
39891;BME280;25564;53.312;9.790;2024-03-29T02:02:20;98952.19;;;3.96;79.51
39891;BME280;25564;53.312;9.790;2024-03-29T02:04:51;98951.50;;;3.94;79.19
39891;BME280;25564;53.312;9.790;2024-03-29T02:07:22;98947.28;;;3.93;78.87
39891;BME280;25564;53.312;9.790;2024-03-29T02:09:53;98959.19;;;3.94;79.37
39891;BME280;25564;53.312;9.790;2024-03-29T02:12:23;98955.13;;;3.91;78.56
39891;BME280;25564;53.312;9.790;2024-03-29T02:14:54;98965.25;;;3.93;79.17
39891;BME280;25564;53.312;9.790;2024-03-29T02:17:24;98962.69;;;3.93;79.06
39891;BME280;25564;53.312;9.790;2024-03-29T02:19:55;98960.38;;;3.90;79.32
39891;BME280;25564;53.312;9.790;2024-03-29T02:22:27;98953.50;;;3.90;79.07
39891;BME280;25564;53.312;9.790;2024-03-29T02:24:57;98962.81;;;3.91;78.71
39891;BME280;25564;53.312;9.790;2024-03-29T02:27:28;98971.56;;;3.89;79.31
39891;BME280;25564;53.312;9.790;2024-03-29T02:29:59;98968.88;;;3.90;78.82
39891;BME280;25564;53.312;9.790;2024-03-29T02:32:29;98965.38;;;3.91;78.72
39891;BME280;25564;53.312;9.790;2024-03-29T02:35:00;98973.75;;;3.93;78.92
39891;BME280;25564;53.312;9.790;2024-03-29T02:37:30;98968.88;;;3.90;79.54
39891;BME280;25564;53.312;9.790;2024-03-29T02:40:01;98963.88;;;3.89;78.76
39891;BME280;25564;53.312;9.790;2024-03-29T02:42:32;98969.81;;;3.89;78.97
39891;BME280;25564;53.312;9.790;2024-03-29T02:45:03;98977.38;;;3.91;79.39
39891;BME280;25564;53.312;9.790;2024-03-29T02:47:34;98971.56;;;3.89;79.11
39891;BME280;25564;53.312;9.790;2024-03-29T02:50:06;98960.25;;;3.91;79.78
39891;BME280;25564;53.312;9.790;2024-03-29T02:52:36;98966.19;;;3.92;79.45
39891;BME280;25564;53.312;9.790;2024-03-29T02:55:07;98971.56;;;3.89;79.11
39891;BME280;25564;53.312;9.790;2024-03-29T02:57:38;98969.69;;;3.91;78.96
39891;BME280;25564;53.312;9.790;2024-03-29T03:00:10;98968.06;;;3.90;79.24
39891;BME280;25564;53.312;9.790;2024-03-29T03:02:41;98967.13;;;3.91;79.44
39891;BME280;25564;53.312;9.790;2024-03-29T03:05:11;98968.75;;;3.92;79.80
39891;BME280;25564;53.312;9.790;2024-03-29T03:07:42;98957.69;;;3.91;79.07
39891;BME280;25564;53.312;9.790;2024-03-29T03:10:31;98954.56;;;3.88;79.26
39891;BME280;25564;53.312;9.790;2024-03-29T03:13:20;98952.00;;;3.88;79.28
39891;BME280;25564;53.312;9.790;2024-03-29T03:15:50;98945.13;;;3.88;79.79
39891;BME280;25564;53.312;9.790;2024-03-29T03:18:21;98938.13;;;3.90;79.15
39891;BME280;25564;53.312;9.790;2024-03-29T03:20:56;98948.69;;;3.97;78.78
39891;BME280;25564;53.312;9.790;2024-03-29T03:23:28;98938.44;;;3.97;79.80
39891;BME280;25564;53.312;9.790;2024-03-29T03:26:02;98934.69;;;4.01;79.06
39891;BME280;25564;53.312;9.790;2024-03-29T03:28:37;98934.00;;;3.99;79.27
39891;BME280;25564;53.312;9.790;2024-03-29T03:31:07;98935.88;;;3.97;79.27
39891;BME280;25564;53.312;9.790;2024-03-29T03:33:39;98931.66;;;3.96;78.83
39891;BME280;25564;53.312;9.790;2024-03-29T03:36:09;98942.97;;;3.93;79.30
39891;BME280;25564;53.312;9.790;2024-03-29T03:38:40;98959.31;;;3.93;79.20
39891;BME280;25564;53.312;9.790;2024-03-29T03:41:11;98947.69;;;3.88;78.64
39891;BME280;25564;53.312;9.790;2024-03-29T03:43:42;98948.06;;;3.84;79.59
39891;BME280;25564;53.312;9.790;2024-03-29T03:46:13;98962.47;;;3.85;78.39
39891;BME280;25564;53.312;9.790;2024-03-29T03:48:43;98960.19;;;3.82;79.64
39891;BME280;25564;53.312;9.790;2024-03-29T03:51:14;98950.03;;;3.80;79.42
39891;BME280;25564;53.312;9.790;2024-03-29T03:53:45;98950.84;;;3.81;78.68
39891;BME280;25564;53.312;9.790;2024-03-29T03:56:15;98958.31;;;3.84;79.67
39891;BME280;25564;53.312;9.790;2024-03-29T03:58:46;98956.44;;;3.86;79.57
39891;BME280;25564;53.312;9.790;2024-03-29T04:01:16;98961.69;;;3.84;79.62
39891;BME280;25564;53.312;9.790;2024-03-29T04:03:47;98964.25;;;3.84;79.97
39891;BME280;25564;53.312;9.790;2024-03-29T04:06:17;98965.75;;;3.87;78.97
39891;BME280;25564;53.312;9.790;2024-03-29T04:08:48;98965.75;;;3.87;79.18
39891;BME280;25564;53.312;9.790;2024-03-29T04:11:18;98948.47;;;3.89;78.98
39891;BME280;25564;53.312;9.790;2024-03-29T04:13:49;98947.56;;;3.90;79.92
39891;BME280;25564;53.312;9.790;2024-03-29T04:16:19;98951.63;;;3.93;79.13
39891;BME280;25564;53.312;9.790;2024-03-29T04:18:50;98955.69;;;3.95;79.50
39891;BME280;25564;53.312;9.790;2024-03-29T04:21:20;98946.91;;;3.98;79.22
39891;BME280;25564;53.312;9.790;2024-03-29T04:23:50;98945.63;;;4.03;79.30
39891;BME280;25564;53.312;9.790;2024-03-29T04:26:22;98939.31;;;4.07;79.82
39891;BME280;25564;53.312;9.790;2024-03-29T04:28:52;98938.81;;;4.13;79.51
39891;BME280;25564;53.312;9.790;2024-03-29T04:31:23;98952.88;;;4.19;79.32
39891;BME280;25564;53.312;9.790;2024-03-29T04:33:53;98941.53;;;4.21;79.53
39891;BME280;25564;53.312;9.790;2024-03-29T04:36:24;98948.06;;;4.25;79.62
39891;BME280;25564;53.312;9.790;2024-03-29T04:38:54;98946.72;;;4.31;79.58
39891;BME280;25564;53.312;9.790;2024-03-29T04:41:25;98944.72;;;4.34;79.48
39891;BME280;25564;53.312;9.790;2024-03-29T04:43:56;98956.50;;;4.37;80.07
39891;BME280;25564;53.312;9.790;2024-03-29T04:46:29;98966.50;;;4.40;79.24
39891;BME280;25564;53.312;9.790;2024-03-29T04:48:59;98969.53;;;4.45;80.10
39891;BME280;25564;53.312;9.790;2024-03-29T04:51:30;98970.75;;;4.50;79.29
39891;BME280;25564;53.312;9.790;2024-03-29T04:54:00;98964.41;;;4.54;80.04
39891;BME280;25564;53.312;9.790;2024-03-29T04:56:31;98965.78;;;4.58;79.62
39891;BME280;25564;53.312;9.790;2024-03-29T04:59:02;98989.34;;;4.63;80.15
39891;BME280;25564;53.312;9.790;2024-03-29T05:01:33;98986.13;;;4.71;79.87
39891;BME280;25564;53.312;9.790;2024-03-29T05:04:05;98990.19;;;4.73;79.56
39891;BME280;25564;53.312;9.790;2024-03-29T05:06:36;98982.13;;;4.78;79.44
39891;BME280;25564;53.312;9.790;2024-03-29T05:09:06;98981.06;;;4.81;79.83
39891;BME280;25564;53.312;9.790;2024-03-29T05:11:37;98985.00;;;4.85;79.37
39891;BME280;25564;53.312;9.790;2024-03-29T05:14:07;98982.72;;;4.91;80.01
39891;BME280;25564;53.312;9.790;2024-03-29T05:16:38;98989.22;;;4.95;79.52
39891;BME280;25564;53.312;9.790;2024-03-29T05:19:08;98986.66;;;4.95;79.58
39891;BME280;25564;53.312;9.790;2024-03-29T05:21:39;98982.75;;;5.01;79.63
39891;BME280;25564;53.312;9.790;2024-03-29T05:24:10;98982.50;;;5.04;79.59
39891;BME280;25564;53.312;9.790;2024-03-29T05:26:41;98983.03;;;5.07;79.73
39891;BME280;25564;53.312;9.790;2024-03-29T05:29:11;98998.22;;;5.10;79.86
39891;BME280;25564;53.312;9.790;2024-03-29T05:31:42;99002.25;;;5.13;79.51
39891;BME280;25564;53.312;9.790;2024-03-29T05:34:13;99010.66;;;5.15;79.71
39891;BME280;25564;53.312;9.790;2024-03-29T05:36:44;99013.66;;;5.20;79.92
39891;BME280;25564;53.312;9.790;2024-03-29T05:39:15;99022.59;;;5.25;79.33
39891;BME280;25564;53.312;9.790;2024-03-29T05:41:46;99024.75;;;5.30;79.70
39891;BME280;25564;53.312;9.790;2024-03-29T05:44:16;99030.44;;;5.33;79.39
39891;BME280;25564;53.312;9.790;2024-03-29T05:46:49;99024.25;;;5.36;79.90
39891;BME280;25564;53.312;9.790;2024-03-29T05:49:19;99015.31;;;5.40;79.59
39891;BME280;25564;53.312;9.790;2024-03-29T05:51:50;99015.75;;;5.45;79.48
39891;BME280;25564;53.312;9.790;2024-03-29T05:54:22;99028.31;;;5.48;79.60
39891;BME280;25564;53.312;9.790;2024-03-29T05:56:53;99021.03;;;5.53;79.39
39891;BME280;25564;53.312;9.790;2024-03-29T05:59:24;99021.31;;;5.60;79.33
39891;BME280;25564;53.312;9.790;2024-03-29T06:01:55;99027.84;;;5.64;79.60
39891;BME280;25564;53.312;9.790;2024-03-29T06:04:25;99016.19;;;5.69;79.37
39891;BME280;25564;53.312;9.790;2024-03-29T06:07:07;99028.66;;;5.74;79.61
39891;BME280;25564;53.312;9.790;2024-03-29T06:09:38;99036.00;;;5.78;79.65
39891;BME280;25564;53.312;9.790;2024-03-29T06:12:08;99037.38;;;5.82;79.54
39891;BME280;25564;53.312;9.790;2024-03-29T06:14:41;99042.78;;;5.89;79.68
39891;BME280;25564;53.312;9.790;2024-03-29T06:17:31;99048.22;;;5.95;79.44
39891;BME280;25564;53.312;9.790;2024-03-29T06:20:01;99059.88;;;5.99;79.63
39891;BME280;25564;53.312;9.790;2024-03-29T06:22:33;99049.84;;;6.06;79.28
39891;BME280;25564;53.312;9.790;2024-03-29T06:25:04;99047.66;;;6.11;79.09
39891;BME280;25564;53.312;9.790;2024-03-29T06:27:35;99062.84;;;6.14;79.18
39891;BME280;25564;53.312;9.790;2024-03-29T06:30:08;99048.50;;;6.21;79.09
39891;BME280;25564;53.312;9.790;2024-03-29T06:32:38;99042.13;;;6.25;79.31
39891;BME280;25564;53.312;9.790;2024-03-29T06:35:09;99044.97;;;6.32;79.03
39891;BME280;25564;53.312;9.790;2024-03-29T06:37:39;99044.69;;;6.35;79.39
39891;BME280;25564;53.312;9.790;2024-03-29T06:40:10;99056.91;;;6.42;79.00
39891;BME280;25564;53.312;9.790;2024-03-29T06:42:41;99070.00;;;6.49;79.24
39891;BME280;25564;53.312;9.790;2024-03-29T06:45:11;99068.66;;;6.54;78.82
39891;BME280;25564;53.312;9.790;2024-03-29T06:47:42;99074.09;;;6.61;79.19
39891;BME280;25564;53.312;9.790;2024-03-29T06:50:12;99065.50;;;6.70;78.93
39891;BME280;25564;53.312;9.790;2024-03-29T06:52:43;99064.16;;;6.75;78.88
39891;BME280;25564;53.312;9.790;2024-03-29T06:55:13;99072.16;;;6.82;78.93
39891;BME280;25564;53.312;9.790;2024-03-29T06:57:44;99065.88;;;6.84;78.67
39891;BME280;25564;53.312;9.790;2024-03-29T07:00:15;99067.78;;;6.92;78.57
39891;BME280;25564;53.312;9.790;2024-03-29T07:02:45;99071.41;;;6.99;78.27
39891;BME280;25564;53.312;9.790;2024-03-29T07:05:16;99077.38;;;7.09;78.71
39891;BME280;25564;53.312;9.790;2024-03-29T07:07:46;99085.22;;;7.17;78.59
39891;BME280;25564;53.312;9.790;2024-03-29T07:10:17;99080.69;;;7.29;78.54
39891;BME280;25564;53.312;9.790;2024-03-29T07:12:47;99071.28;;;7.37;78.09
39891;BME280;25564;53.312;9.790;2024-03-29T07:15:18;99077.19;;;7.47;78.18
39891;BME280;25564;53.312;9.790;2024-03-29T07:17:48;99097.97;;;7.55;77.98
39891;BME280;25564;53.312;9.790;2024-03-29T07:20:21;99093.84;;;7.62;78.30
39891;BME280;25564;53.312;9.790;2024-03-29T07:22:51;99095.59;;;7.71;77.86
39891;BME280;25564;53.312;9.790;2024-03-29T07:25:22;99099.91;;;7.80;77.72
39891;BME280;25564;53.312;9.790;2024-03-29T07:27:52;99103.06;;;7.92;77.99
39891;BME280;25564;53.312;9.790;2024-03-29T07:30:23;99098.66;;;8.02;77.60
39891;BME280;25564;53.312;9.790;2024-03-29T07:32:53;99091.97;;;8.09;77.68
39891;BME280;25564;53.312;9.790;2024-03-29T07:35:24;99107.53;;;8.17;77.69
39891;BME280;25564;53.312;9.790;2024-03-29T07:37:54;99110.69;;;8.29;77.25
39891;BME280;25564;53.312;9.790;2024-03-29T07:40:25;99109.53;;;8.41;77.53
39891;BME280;25564;53.312;9.790;2024-03-29T07:42:55;99112.84;;;8.51;77.37
39891;BME280;25564;53.312;9.790;2024-03-29T07:45:26;99113.56;;;8.61;77.50
39891;BME280;25564;53.312;9.790;2024-03-29T07:47:57;99122.03;;;8.71;77.26
39891;BME280;25564;53.312;9.790;2024-03-29T07:50:27;99115.53;;;8.85;76.93
39891;BME280;25564;53.312;9.790;2024-03-29T07:52:58;99127.09;;;8.98;77.17
39891;BME280;25564;53.312;9.790;2024-03-29T07:55:30;99116.50;;;9.09;76.69
39891;BME280;25564;53.312;9.790;2024-03-29T07:58:00;99121.75;;;9.17;76.49
39891;BME280;25564;53.312;9.790;2024-03-29T08:00:32;99126.63;;;9.20;76.35
39891;BME280;25564;53.312;9.790;2024-03-29T08:03:02;99131.66;;;9.22;76.20
39891;BME280;25564;53.312;9.790;2024-03-29T08:05:34;99131.03;;;9.28;76.27
39891;BME280;25564;53.312;9.790;2024-03-29T08:08:05;99129.78;;;9.40;76.10
39891;BME280;25564;53.312;9.790;2024-03-29T08:10:35;99129.06;;;9.56;76.13
39891;BME280;25564;53.312;9.790;2024-03-29T08:13:07;99122.97;;;9.65;75.90
39891;BME280;25564;53.312;9.790;2024-03-29T08:15:37;99129.50;;;9.77;75.94
39891;BME280;25564;53.312;9.790;2024-03-29T08:18:08;99132.59;;;9.88;75.76
39891;BME280;25564;53.312;9.790;2024-03-29T08:20:39;99129.69;;;9.91;76.07
39891;BME280;25564;53.312;9.790;2024-03-29T08:23:09;99132.13;;;9.93;75.34
39891;BME280;25564;53.312;9.790;2024-03-29T08:25:39;99140.25;;;9.98;75.74
39891;BME280;25564;53.312;9.790;2024-03-29T08:28:10;99112.88;;;10.03;75.69
39891;BME280;25564;53.312;9.790;2024-03-29T08:30:41;99102.41;;;10.13;75.73
39891;BME280;25564;53.312;9.790;2024-03-29T08:33:12;99079.75;;;10.31;75.91
39891;BME280;25564;53.312;9.790;2024-03-29T08:35:42;99060.78;;;10.47;76.10
39891;BME280;25564;53.312;9.790;2024-03-29T08:38:13;99071.31;;;10.45;75.34
39891;BME280;25564;53.312;9.790;2024-03-29T08:40:44;99085.91;;;10.46;75.71
39891;BME280;25564;53.312;9.790;2024-03-29T08:43:19;99064.66;;;10.51;75.72
39891;BME280;25564;53.312;9.790;2024-03-29T08:45:49;99073.91;;;10.53;75.38
39891;BME280;25564;53.312;9.790;2024-03-29T08:48:20;99076.03;;;10.58;75.67
39891;BME280;25564;53.312;9.790;2024-03-29T08:50:50;99074.44;;;10.57;75.04
39891;BME280;25564;53.312;9.790;2024-03-29T08:53:21;99064.84;;;10.57;75.54
39891;BME280;25564;53.312;9.790;2024-03-29T08:55:55;99055.94;;;10.60;75.16
39891;BME280;25564;53.312;9.790;2024-03-29T08:58:26;99049.31;;;10.57;75.02
39891;BME280;25564;53.312;9.790;2024-03-29T09:00:57;99050.91;;;10.50;75.32
39891;BME280;25564;53.312;9.790;2024-03-29T09:03:27;99064.19;;;10.47;75.09
39891;BME280;25564;53.312;9.790;2024-03-29T09:05:58;99063.53;;;10.45;74.90
39891;BME280;25564;53.312;9.790;2024-03-29T09:08:28;99072.13;;;10.38;74.88
39891;BME280;25564;53.312;9.790;2024-03-29T09:10:59;99065.16;;;10.30;75.51
39891;BME280;25564;53.312;9.790;2024-03-29T09:13:31;99062.56;;;10.30;74.90
39891;BME280;25564;53.312;9.790;2024-03-29T09:16:02;99062.25;;;10.25;75.01
39891;BME280;25564;53.312;9.790;2024-03-29T09:18:33;99064.97;;;10.15;74.91
39891;BME280;25564;53.312;9.790;2024-03-29T09:21:04;99061.09;;;10.03;74.89
39891;BME280;25564;53.312;9.790;2024-03-29T09:23:34;99056.53;;;9.97;75.38
39891;BME280;25564;53.312;9.790;2024-03-29T09:26:06;99067.38;;;10.01;75.46
39891;BME280;25564;53.312;9.790;2024-03-29T09:28:36;99064.31;;;10.05;75.09
39891;BME280;25564;53.312;9.790;2024-03-29T09:31:07;99064.97;;;10.07;75.29
39891;BME280;25564;53.312;9.790;2024-03-29T09:33:37;99058.38;;;10.21;75.45
39891;BME280;25564;53.312;9.790;2024-03-29T09:36:08;99053.19;;;10.37;75.11
39891;BME280;25564;53.312;9.790;2024-03-29T09:38:41;99046.88;;;10.56;75.13
39891;BME280;25564;53.312;9.790;2024-03-29T09:41:15;99033.41;;;10.76;74.85
39891;BME280;25564;53.312;9.790;2024-03-29T09:43:47;99035.47;;;10.97;74.94
39891;BME280;25564;53.312;9.790;2024-03-29T09:46:17;99037.38;;;11.11;74.57
39891;BME280;25564;53.312;9.790;2024-03-29T09:48:49;99037.22;;;11.13;74.28
39891;BME280;25564;53.312;9.790;2024-03-29T09:51:21;99032.66;;;11.15;74.26
39891;BME280;25564;53.312;9.790;2024-03-29T09:53:51;99031.03;;;11.14;74.22
39891;BME280;25564;53.312;9.790;2024-03-29T09:56:22;99047.38;;;11.22;74.40
39891;BME280;25564;53.312;9.790;2024-03-29T09:58:53;99023.09;;;11.15;74.29
39891;BME280;25564;53.312;9.790;2024-03-29T10:01:23;99014.53;;;11.07;74.23
39891;BME280;25564;53.312;9.790;2024-03-29T10:03:56;99003.47;;;11.13;73.88
39891;BME280;25564;53.312;9.790;2024-03-29T10:06:28;99005.09;;;11.14;73.91
39891;BME280;25564;53.312;9.790;2024-03-29T10:08:59;99013.03;;;11.12;74.00
39891;BME280;25564;53.312;9.790;2024-03-29T10:11:30;99013.03;;;11.12;74.00
39891;BME280;25564;53.312;9.790;2024-03-29T10:14:01;99021.97;;;11.18;74.12
39891;BME280;25564;53.312;9.790;2024-03-29T10:16:33;99015.75;;;11.27;74.05
39891;BME280;25564;53.312;9.790;2024-03-29T10:19:04;99018.84;;;11.22;73.96
39891;BME280;25564;53.312;9.790;2024-03-29T10:21:37;99021.31;;;11.16;74.03
39891;BME280;25564;53.312;9.790;2024-03-29T10:24:13;99014.19;;;11.10;73.88
39891;BME280;25564;53.312;9.790;2024-03-29T10:26:44;99022.72;;;9.33;67.10
39891;BME280;25564;53.312;9.790;2024-03-29T10:29:16;99026.06;;;8.05;71.37
39891;BME280;25564;53.312;9.790;2024-03-29T10:31:46;99018.44;;;8.39;70.66
39891;BME280;25564;53.312;9.790;2024-03-29T10:34:20;99013.28;;;8.90;69.27
39891;BME280;25564;53.312;9.790;2024-03-29T10:36:50;99007.16;;;9.83;67.40
39891;BME280;25564;53.312;9.790;2024-03-29T10:39:21;99003.44;;;9.77;65.68
39891;BME280;25564;53.312;9.790;2024-03-29T10:41:51;99012.34;;;9.91;66.23
39891;BME280;25564;53.312;9.790;2024-03-29T10:44:22;99025.28;;;9.83;66.46
39891;BME280;25564;53.312;9.790;2024-03-29T10:46:57;99022.94;;;11.86;73.70
39891;BME280;25564;53.312;9.790;2024-03-29T10:49:29;99010.38;;;13.30;72.88
39891;BME280;25564;53.312;9.790;2024-03-29T10:52:03;99013.25;;;13.71;71.52
39891;BME280;25564;53.312;9.790;2024-03-29T10:54:36;99012.75;;;13.61;70.83
39891;BME280;25564;53.312;9.790;2024-03-29T10:57:22;99003.53;;;13.44;70.62
39891;BME280;25564;53.312;9.790;2024-03-29T11:00:14;99014.78;;;13.30;70.95
39891;BME280;25564;53.312;9.790;2024-03-29T11:06:02;99020.41;;;12.90;71.88
39891;BME280;25564;53.312;9.790;2024-03-29T11:08:34;99027.75;;;12.72;71.92
39891;BME280;25564;53.312;9.790;2024-03-29T11:11:09;99025.66;;;12.52;72.06
39891;BME280;25564;53.312;9.790;2024-03-29T11:13:53;99029.38;;;12.35;71.71
39891;BME280;25564;53.312;9.790;2024-03-29T11:16:29;99040.38;;;12.23;72.67
39891;BME280;25564;53.312;9.790;2024-03-29T11:19:00;99020.75;;;12.20;72.63
39891;BME280;25564;53.312;9.790;2024-03-29T11:21:35;99033.31;;;12.31;72.79
39891;BME280;25564;53.312;9.790;2024-03-29T11:24:05;99026.44;;;12.38;72.79
39891;BME280;25564;53.312;9.790;2024-03-29T11:26:37;99029.31;;;12.43;72.90
39891;BME280;25564;53.312;9.790;2024-03-29T11:29:18;99027.63;;;12.50;72.50
39891;BME280;25564;53.312;9.790;2024-03-29T11:31:58;99030.94;;;12.44;72.38
39891;BME280;25564;53.312;9.790;2024-03-29T11:34:32;99044.66;;;12.38;72.71
39891;BME280;25564;53.312;9.790;2024-03-29T11:37:10;99050.66;;;12.39;72.92
39891;BME280;25564;53.312;9.790;2024-03-29T11:39:47;99046.53;;;12.44;73.04
39891;BME280;25564;53.312;9.790;2024-03-29T11:42:18;99048.03;;;12.61;74.29
39891;BME280;25564;53.312;9.790;2024-03-29T11:44:48;99050.22;;;12.87;73.39
39891;BME280;25564;53.312;9.790;2024-03-29T11:47:19;99033.66;;;13.03;72.95
39891;BME280;25564;53.312;9.790;2024-03-29T11:49:56;99029.78;;;13.13;72.90
39891;BME280;25564;53.312;9.790;2024-03-29T11:52:26;99039.38;;;13.13;73.04
39891;BME280;25564;53.312;9.790;2024-03-29T11:54:57;99043.09;;;13.18;73.26
39891;BME280;25564;53.312;9.790;2024-03-29T11:57:29;99024.38;;;13.29;72.94
39891;BME280;25564;53.312;9.790;2024-03-29T12:00:00;99030.13;;;13.39;73.14
39891;BME280;25564;53.312;9.790;2024-03-29T12:02:31;99031.25;;;13.66;72.70
39891;BME280;25564;53.312;9.790;2024-03-29T12:05:08;99028.69;;;13.87;72.33
39891;BME280;25564;53.312;9.790;2024-03-29T12:07:39;99039.53;;;13.91;72.38
39891;BME280;25564;53.312;9.790;2024-03-29T12:10:09;99034.50;;;14.04;72.58
39891;BME280;25564;53.312;9.790;2024-03-29T12:12:40;99032.25;;;14.22;72.42
39891;BME280;25564;53.312;9.790;2024-03-29T12:15:12;99027.41;;;14.40;72.12
39891;BME280;25564;53.312;9.790;2024-03-29T12:17:53;99024.19;;;14.45;71.20
39891;BME280;25564;53.312;9.790;2024-03-29T12:20:23;99031.06;;;14.25;71.87
39891;BME280;25564;53.312;9.790;2024-03-29T12:22:54;99024.75;;;14.12;72.11
39891;BME280;25564;53.312;9.790;2024-03-29T12:25:25;99022.06;;;14.06;71.94
39891;BME280;25564;53.312;9.790;2024-03-29T12:27:59;99030.13;;;13.90;71.59
39891;BME280;25564;53.312;9.790;2024-03-29T12:30:32;99039.03;;;13.81;72.31
39891;BME280;25564;53.312;9.790;2024-03-29T12:33:07;99038.09;;;13.88;71.66
39891;BME280;25564;53.312;9.790;2024-03-29T12:35:41;99045.78;;;13.75;71.85
39891;BME280;25564;53.312;9.790;2024-03-29T12:38:12;99051.72;;;13.69;72.13
39891;BME280;25564;53.312;9.790;2024-03-29T12:40:45;99050.09;;;13.68;72.01
39891;BME280;25564;53.312;9.790;2024-03-29T12:43:22;99055.66;;;13.65;71.42
39891;BME280;25564;53.312;9.790;2024-03-29T12:45:53;99067.72;;;13.66;72.02
39891;BME280;25564;53.312;9.790;2024-03-29T12:48:23;99063.03;;;13.76;71.95
39891;BME280;25564;53.312;9.790;2024-03-29T12:50:55;99043.31;;;13.88;71.72
39891;BME280;25564;53.312;9.790;2024-03-29T12:53:28;99037.91;;;14.04;71.71
39891;BME280;25564;53.312;9.790;2024-03-29T12:55:58;99042.53;;;14.30;72.02
39891;BME280;25564;53.312;9.790;2024-03-29T12:58:29;99043.34;;;14.52;71.92
39891;BME280;25564;53.312;9.790;2024-03-29T13:00:59;99059.03;;;14.58;71.44
39891;BME280;25564;53.312;9.790;2024-03-29T13:03:29;99067.13;;;14.63;71.19
39891;BME280;25564;53.312;9.790;2024-03-29T13:06:00;99077.66;;;14.55;71.23
39891;BME280;25564;53.312;9.790;2024-03-29T13:08:31;99083.41;;;14.44;70.88
39891;BME280;25564;53.312;9.790;2024-03-29T13:11:02;99088.81;;;14.43;70.95
39891;BME280;25564;53.312;9.790;2024-03-29T13:13:33;99081.72;;;14.37;70.99
39891;BME280;25564;53.312;9.790;2024-03-29T13:16:03;99095.91;;;14.28;71.19
39891;BME280;25564;53.312;9.790;2024-03-29T13:18:34;99097.63;;;14.21;71.12
39891;BME280;25564;53.312;9.790;2024-03-29T13:21:05;99076.88;;;14.12;71.03
39891;BME280;25564;53.312;9.790;2024-03-29T13:23:36;99088.78;;;14.22;70.83
39891;BME280;25564;53.312;9.790;2024-03-29T13:26:08;99078.81;;;14.25;71.27
39891;BME280;25564;53.312;9.790;2024-03-29T13:28:39;99068.88;;;14.35;71.21
39891;BME280;25564;53.312;9.790;2024-03-29T13:31:10;99057.63;;;14.56;71.17
39891;BME280;25564;53.312;9.790;2024-03-29T13:33:41;99073.03;;;14.78;70.90